sensor_id;sensor_type;location;lat;lon;timestamp;pressure;altitude;pressure_sealevel;temperature;humidity
21828;BME280;11076;47.942;11.804;2023-09-07T00:02:20;94684.66;;;17.26;74.72
21828;BME280;11076;47.942;11.804;2023-09-07T00:07:27;94684.50;;;17.33;74.70
21828;BME280;11076;47.942;11.804;2023-09-07T00:12:29;94676.91;;;17.57;73.52
21828;BME280;11076;47.942;11.804;2023-09-07T00:17:32;94684.53;;;17.38;73.83
21828;BME280;11076;47.942;11.804;2023-09-07T00:22:34;94683.22;;;17.41;73.85
21828;BME280;11076;47.942;11.804;2023-09-07T00:27:36;94675.28;;;17.07;75.20
21828;BME280;11076;47.942;11.804;2023-09-07T00:32:39;94678.91;;;17.18;74.47
21828;BME280;11076;47.942;11.804;2023-09-07T00:37:42;94674.59;;;17.44;73.15
21828;BME280;11076;47.942;11.804;2023-09-07T00:42:44;94674.69;;;17.05;74.68
21828;BME280;11076;47.942;11.804;2023-09-07T00:47:47;94680.94;;;16.83;75.85
21828;BME280;11076;47.942;11.804;2023-09-07T00:52:50;94677.88;;;16.58;76.33
21828;BME280;11076;47.942;11.804;2023-09-07T00:57:53;94674.66;;;17.00;74.97
21828;BME280;11076;47.942;11.804;2023-09-07T01:02:56;94675.09;;;16.75;75.57
21828;BME280;11076;47.942;11.804;2023-09-07T01:08:06;94673.88;;;16.82;75.53
21828;BME280;11076;47.942;11.804;2023-09-07T01:13:12;94675.53;;;16.66;76.29
21828;BME280;11076;47.942;11.804;2023-09-07T01:18:15;94666.91;;;16.86;75.02
21828;BME280;11076;47.942;11.804;2023-09-07T01:23:25;94663.38;;;16.64;75.38
21828;BME280;11076;47.942;11.804;2023-09-07T01:28:27;94660.31;;;16.77;75.06
21828;BME280;11076;47.942;11.804;2023-09-07T01:33:30;94660.16;;;16.84;74.35
21828;BME280;11076;47.942;11.804;2023-09-07T01:38:32;94661.91;;;16.95;73.38
21828;BME280;11076;47.942;11.804;2023-09-07T01:43:37;94664.06;;;16.76;73.55
21828;BME280;11076;47.942;11.804;2023-09-07T01:48:39;94661.53;;;16.86;73.87
21828;BME280;11076;47.942;11.804;2023-09-07T01:53:47;94657.91;;;16.59;75.03
21828;BME280;11076;47.942;11.804;2023-09-07T01:58:50;94654.47;;;16.63;74.84
21828;BME280;11076;47.942;11.804;2023-09-07T02:03:52;94664.81;;;16.49;75.54
21828;BME280;11076;47.942;11.804;2023-09-07T02:08:55;94640.88;;;16.58;74.95
21828;BME280;11076;47.942;11.804;2023-09-07T02:13:58;94654.91;;;16.77;74.83
21828;BME280;11076;47.942;11.804;2023-09-07T02:19:03;94650.75;;;16.69;75.02
21828;BME280;11076;47.942;11.804;2023-09-07T02:24:06;94648.84;;;17.09;73.02
21828;BME280;11076;47.942;11.804;2023-09-07T02:29:10;94654.25;;;15.92;77.52
21828;BME280;11076;47.942;11.804;2023-09-07T02:34:13;94648.09;;;16.53;75.26
21828;BME280;11076;47.942;11.804;2023-09-07T02:39:15;94648.78;;;16.43;75.33
21828;BME280;11076;47.942;11.804;2023-09-07T02:44:19;94656.38;;;15.61;78.48
21828;BME280;11076;47.942;11.804;2023-09-07T02:49:22;94659.34;;;15.60;78.62
21828;BME280;11076;47.942;11.804;2023-09-07T02:54:25;94662.53;;;14.99;80.31
21828;BME280;11076;47.942;11.804;2023-09-07T02:59:28;94653.63;;;15.27;79.12
21828;BME280;11076;47.942;11.804;2023-09-07T03:04:31;94656.56;;;15.26;78.69
21828;BME280;11076;47.942;11.804;2023-09-07T03:09:34;94655.69;;;15.20;78.88
21828;BME280;11076;47.942;11.804;2023-09-07T03:14:37;94657.28;;;15.50;77.37
21828;BME280;11076;47.942;11.804;2023-09-07T03:19:40;94657.94;;;15.40;76.67
21828;BME280;11076;47.942;11.804;2023-09-07T03:24:42;94652.41;;;15.64;76.57
21828;BME280;11076;47.942;11.804;2023-09-07T03:29:45;94663.84;;;15.25;77.42
21828;BME280;11076;47.942;11.804;2023-09-07T03:34:48;94664.88;;;14.96;78.80
21828;BME280;11076;47.942;11.804;2023-09-07T03:39:51;94661.50;;;15.29;77.00
21828;BME280;11076;47.942;11.804;2023-09-07T03:44:53;94663.03;;;14.96;78.42
21828;BME280;11076;47.942;11.804;2023-09-07T03:49:56;94666.59;;;15.14;78.05
21828;BME280;11076;47.942;11.804;2023-09-07T03:55:00;94667.50;;;15.19;77.49
21828;BME280;11076;47.942;11.804;2023-09-07T04:00:03;94662.78;;;15.26;77.13
21828;BME280;11076;47.942;11.804;2023-09-07T04:05:21;94661.66;;;15.22;77.07
21828;BME280;11076;47.942;11.804;2023-09-07T04:10:24;94671.03;;;15.08;78.46
21828;BME280;11076;47.942;11.804;2023-09-07T04:15:26;94668.66;;;14.95;78.53
21828;BME280;11076;47.942;11.804;2023-09-07T04:20:29;94673.56;;;15.26;77.38
21828;BME280;11076;47.942;11.804;2023-09-07T04:25:32;94673.66;;;15.03;79.33
21828;BME280;11076;47.942;11.804;2023-09-07T04:30:39;94671.97;;;14.73;80.66
21828;BME280;11076;47.942;11.804;2023-09-07T04:35:42;94674.09;;;15.11;79.50
21828;BME280;11076;47.942;11.804;2023-09-07T04:40:44;94682.69;;;14.97;80.18
21828;BME280;11076;47.942;11.804;2023-09-07T04:45:47;94681.53;;;15.50;78.32
21828;BME280;11076;47.942;11.804;2023-09-07T04:50:57;94686.72;;;15.40;77.51
21828;BME280;11076;47.942;11.804;2023-09-07T04:56:01;94685.66;;;14.83;80.13
21828;BME280;11076;47.942;11.804;2023-09-07T05:01:05;94693.22;;;14.98;79.48
21828;BME280;11076;47.942;11.804;2023-09-07T05:06:08;94697.59;;;14.76;80.66
21828;BME280;11076;47.942;11.804;2023-09-07T05:11:10;94698.53;;;14.81;80.44
21828;BME280;11076;47.942;11.804;2023-09-07T05:16:13;94696.81;;;15.04;79.76
21828;BME280;11076;47.942;11.804;2023-09-07T05:21:16;94703.44;;;14.84;81.02
21828;BME280;11076;47.942;11.804;2023-09-07T05:26:22;94699.78;;;15.02;81.55
21828;BME280;11076;47.942;11.804;2023-09-07T05:31:26;94698.84;;;15.54;80.09
21828;BME280;11076;47.942;11.804;2023-09-07T05:36:29;94698.38;;;16.20;78.01
21828;BME280;11076;47.942;11.804;2023-09-07T05:41:32;94692.19;;;16.80;76.14
21828;BME280;11076;47.942;11.804;2023-09-07T05:46:34;94710.19;;;16.92;77.39
21828;BME280;11076;47.942;11.804;2023-09-07T05:51:37;94706.16;;;17.16;77.47
21828;BME280;11076;47.942;11.804;2023-09-07T05:56:40;94709.44;;;17.67;76.28
21828;BME280;11076;47.942;11.804;2023-09-07T06:01:42;94710.13;;;17.08;79.52
21828;BME280;11076;47.942;11.804;2023-09-07T06:06:46;94712.31;;;17.34;79.65
21828;BME280;11076;47.942;11.804;2023-09-07T06:11:49;94717.38;;;17.52;79.71
21828;BME280;11076;47.942;11.804;2023-09-07T06:16:52;94722.31;;;17.60;80.41
21828;BME280;11076;47.942;11.804;2023-09-07T06:21:55;94714.00;;;17.89;79.99
21828;BME280;11076;47.942;11.804;2023-09-07T06:26:57;94719.78;;;18.35;79.18
21828;BME280;11076;47.942;11.804;2023-09-07T06:32:00;94720.66;;;18.41;80.37
21828;BME280;11076;47.942;11.804;2023-09-07T06:37:04;94720.63;;;18.78;79.51
21828;BME280;11076;47.942;11.804;2023-09-07T06:42:07;94726.69;;;18.96;79.79
21828;BME280;11076;47.942;11.804;2023-09-07T06:47:16;94716.66;;;19.64;77.59
21828;BME280;11076;47.942;11.804;2023-09-07T06:52:19;94719.91;;;19.56;77.77
21828;BME280;11076;47.942;11.804;2023-09-07T06:57:21;94720.56;;;20.15;77.00
21828;BME280;11076;47.942;11.804;2023-09-07T07:02:25;94728.16;;;20.28;76.71
21828;BME280;11076;47.942;11.804;2023-09-07T07:07:29;94716.19;;;20.80;75.45
21828;BME280;11076;47.942;11.804;2023-09-07T07:12:31;94724.34;;;20.80;76.07
21828;BME280;11076;47.942;11.804;2023-09-07T07:17:38;94722.59;;;21.25;74.50
21828;BME280;11076;47.942;11.804;2023-09-07T07:22:40;94726.88;;;21.47;74.05
21828;BME280;11076;47.942;11.804;2023-09-07T07:27:44;94724.13;;;21.52;73.83
21828;BME280;11076;47.942;11.804;2023-09-07T07:32:48;94724.44;;;21.95;72.38
21828;BME280;11076;47.942;11.804;2023-09-07T07:37:53;94732.34;;;21.97;72.68
21828;BME280;11076;47.942;11.804;2023-09-07T07:42:56;94728.97;;;22.50;70.45
21828;BME280;11076;47.942;11.804;2023-09-07T07:47:58;94738.34;;;22.68;70.19
21828;BME280;11076;47.942;11.804;2023-09-07T07:53:01;94735.47;;;22.54;69.85
21828;BME280;11076;47.942;11.804;2023-09-07T07:58:08;94741.50;;;22.51;69.81
21828;BME280;11076;47.942;11.804;2023-09-07T08:03:12;94733.81;;;21.74;73.27
21828;BME280;11076;47.942;11.804;2023-09-07T08:08:15;94735.50;;;22.09;72.55
21828;BME280;11076;47.942;11.804;2023-09-07T08:13:18;94737.63;;;22.17;72.50
21828;BME280;11076;47.942;11.804;2023-09-07T08:18:22;94729.66;;;22.31;71.98
21828;BME280;11076;47.942;11.804;2023-09-07T08:23:26;94720.84;;;22.44;71.91
21828;BME280;11076;47.942;11.804;2023-09-07T08:28:29;94724.09;;;23.05;69.46
21828;BME280;11076;47.942;11.804;2023-09-07T08:33:32;94724.00;;;23.15;68.57
21828;BME280;11076;47.942;11.804;2023-09-07T08:38:37;94729.00;;;23.32;67.11
21828;BME280;11076;47.942;11.804;2023-09-07T08:43:45;94724.91;;;23.73;66.84
21828;BME280;11076;47.942;11.804;2023-09-07T08:48:51;94719.06;;;23.85;66.89
21828;BME280;11076;47.942;11.804;2023-09-07T08:53:53;94727.19;;;24.28;64.11
21828;BME280;11076;47.942;11.804;2023-09-07T08:58:58;94733.75;;;24.08;64.23
21828;BME280;11076;47.942;11.804;2023-09-07T09:04:00;94732.13;;;24.07;64.71
21828;BME280;11076;47.942;11.804;2023-09-07T09:09:03;94725.38;;;24.56;62.31
21828;BME280;11076;47.942;11.804;2023-09-07T09:14:08;94731.19;;;24.68;61.95
21828;BME280;11076;47.942;11.804;2023-09-07T09:19:11;94721.94;;;24.97;61.15
21828;BME280;11076;47.942;11.804;2023-09-07T09:24:13;94719.59;;;24.90;60.91
21828;BME280;11076;47.942;11.804;2023-09-07T09:29:22;94708.81;;;25.27;60.42
21828;BME280;11076;47.942;11.804;2023-09-07T09:34:25;94710.84;;;25.63;59.03
21828;BME280;11076;47.942;11.804;2023-09-07T09:39:27;94710.84;;;25.49;58.82
21828;BME280;11076;47.942;11.804;2023-09-07T09:44:30;94717.47;;;25.84;58.31
21828;BME280;11076;47.942;11.804;2023-09-07T09:49:33;94713.84;;;25.75;58.97
21828;BME280;11076;47.942;11.804;2023-09-07T09:54:35;94707.66;;;25.83;58.07
21828;BME280;11076;47.942;11.804;2023-09-07T09:59:38;94711.00;;;25.80;58.74
21828;BME280;11076;47.942;11.804;2023-09-07T10:04:42;94708.53;;;26.06;58.25
21828;BME280;11076;47.942;11.804;2023-09-07T10:09:44;94713.19;;;26.06;58.66
21828;BME280;11076;47.942;11.804;2023-09-07T10:14:47;94705.53;;;26.30;58.03
21828;BME280;11076;47.942;11.804;2023-09-07T10:20:03;94707.75;;;26.51;58.28
21828;BME280;11076;47.942;11.804;2023-09-07T10:25:22;94707.25;;;26.49;58.07
21828;BME280;11076;47.942;11.804;2023-09-07T10:30:24;94699.47;;;26.42;58.62
21828;BME280;11076;47.942;11.804;2023-09-07T10:35:27;94700.63;;;26.50;57.71
21828;BME280;11076;47.942;11.804;2023-09-07T10:40:32;94705.69;;;26.56;58.25
21828;BME280;11076;47.942;11.804;2023-09-07T10:45:34;94698.19;;;26.62;56.94
21828;BME280;11076;47.942;11.804;2023-09-07T10:50:44;94690.19;;;26.74;56.66
21828;BME280;11076;47.942;11.804;2023-09-07T10:55:47;94698.91;;;27.08;55.99
21828;BME280;11076;47.942;11.804;2023-09-07T11:00:52;94687.59;;;27.41;55.89
21828;BME280;11076;47.942;11.804;2023-09-07T11:06:02;94700.34;;;27.36;55.56
21828;BME280;11076;47.942;11.804;2023-09-07T11:11:05;94692.31;;;27.49;55.47
21828;BME280;11076;47.942;11.804;2023-09-07T11:16:09;94694.13;;;27.71;55.27
21828;BME280;11076;47.942;11.804;2023-09-07T11:21:11;94695.59;;;27.60;55.14
21828;BME280;11076;47.942;11.804;2023-09-07T11:26:14;94691.63;;;27.34;55.25
21828;BME280;11076;47.942;11.804;2023-09-07T11:31:19;94692.78;;;27.42;55.70
21828;BME280;11076;47.942;11.804;2023-09-07T11:36:23;94692.13;;;27.36;54.48
21828;BME280;11076;47.942;11.804;2023-09-07T11:41:26;94696.69;;;27.58;53.72
21828;BME280;11076;47.942;11.804;2023-09-07T11:46:29;94686.66;;;27.45;55.03
21828;BME280;11076;47.942;11.804;2023-09-07T11:51:31;94686.69;;;27.63;54.83
21828;BME280;11076;47.942;11.804;2023-09-07T11:56:34;94688.31;;;27.64;54.44
21828;BME280;11076;47.942;11.804;2023-09-07T12:01:41;94686.56;;;27.85;53.36
21828;BME280;11076;47.942;11.804;2023-09-07T12:06:44;94674.97;;;27.88;52.69
21828;BME280;11076;47.942;11.804;2023-09-07T12:11:46;94678.06;;;27.95;51.79
21828;BME280;11076;47.942;11.804;2023-09-07T12:16:49;94677.91;;;27.92;52.44
21828;BME280;11076;47.942;11.804;2023-09-07T12:21:51;94673.38;;;28.22;51.97
21828;BME280;11076;47.942;11.804;2023-09-07T12:26:54;94665.59;;;28.42;51.50
21828;BME280;11076;47.942;11.804;2023-09-07T12:31:56;94672.72;;;28.16;52.21
21828;BME280;11076;47.942;11.804;2023-09-07T12:36:59;94657.69;;;28.31;50.29
21828;BME280;11076;47.942;11.804;2023-09-07T12:42:01;94660.50;;;27.08;53.75
21828;BME280;11076;47.942;11.804;2023-09-07T12:47:04;94658.22;;;27.41;52.21
21828;BME280;11076;47.942;11.804;2023-09-07T12:52:07;94657.78;;;27.56;51.78
21828;BME280;11076;47.942;11.804;2023-09-07T12:57:11;94648.00;;;28.16;50.07
21828;BME280;11076;47.942;11.804;2023-09-07T13:02:14;94660.03;;;27.54;51.15
21828;BME280;11076;47.942;11.804;2023-09-07T13:07:17;94654.44;;;28.21;49.98
21828;BME280;11076;47.942;11.804;2023-09-07T13:12:20;94656.72;;;27.92;49.55
21828;BME280;11076;47.942;11.804;2023-09-07T13:17:22;94657.06;;;28.00;49.28
21828;BME280;11076;47.942;11.804;2023-09-07T13:22:24;94646.69;;;27.96;49.19
21828;BME280;11076;47.942;11.804;2023-09-07T13:27:27;94650.84;;;27.68;48.73
21828;BME280;11076;47.942;11.804;2023-09-07T13:32:29;94646.66;;;26.82;50.56
21828;BME280;11076;47.942;11.804;2023-09-07T13:37:32;94633.56;;;27.67;48.33
21828;BME280;11076;47.942;11.804;2023-09-07T13:42:36;94638.59;;;26.76;49.83
21828;BME280;11076;47.942;11.804;2023-09-07T13:47:40;94639.00;;;26.38;49.96
21828;BME280;11076;47.942;11.804;2023-09-07T13:52:43;94641.28;;;26.68;50.59
21828;BME280;11076;47.942;11.804;2023-09-07T13:57:45;94640.75;;;26.88;49.63
21828;BME280;11076;47.942;11.804;2023-09-07T14:02:49;94635.59;;;27.27;48.46
21828;BME280;11076;47.942;11.804;2023-09-07T14:07:52;94616.44;;;27.70;47.05
21828;BME280;11076;47.942;11.804;2023-09-07T14:12:54;94624.03;;;27.73;48.42
21828;BME280;11076;47.942;11.804;2023-09-07T14:17:56;94630.53;;;28.12;46.61
21828;BME280;11076;47.942;11.804;2023-09-07T14:22:59;94627.94;;;28.16;46.43
21828;BME280;11076;47.942;11.804;2023-09-07T14:28:03;94636.53;;;28.06;46.80
21828;BME280;11076;47.942;11.804;2023-09-07T14:33:05;94627.28;;;28.54;45.48
21828;BME280;11076;47.942;11.804;2023-09-07T14:38:08;94643.38;;;27.42;48.06
21828;BME280;11076;47.942;11.804;2023-09-07T14:43:11;94635.31;;;27.46;48.20
21828;BME280;11076;47.942;11.804;2023-09-07T14:48:13;94623.56;;;27.80;48.03
21828;BME280;11076;47.942;11.804;2023-09-07T14:53:15;94630.66;;;27.64;47.64
21828;BME280;11076;47.942;11.804;2023-09-07T14:58:18;94628.13;;;27.93;47.64
21828;BME280;11076;47.942;11.804;2023-09-07T15:03:20;94627.88;;;27.46;48.34
21828;BME280;11076;47.942;11.804;2023-09-07T15:08:23;94624.22;;;28.21;47.48
21828;BME280;11076;47.942;11.804;2023-09-07T15:13:26;94629.53;;;28.52;45.91
21828;BME280;11076;47.942;11.804;2023-09-07T15:18:28;94628.06;;;27.50;48.46
21828;BME280;11076;47.942;11.804;2023-09-07T15:23:31;94630.38;;;28.09;47.03
21828;BME280;11076;47.942;11.804;2023-09-07T15:28:33;94628.53;;;27.03;48.82
21828;BME280;11076;47.942;11.804;2023-09-07T15:33:36;94643.38;;;27.42;48.93
21828;BME280;11076;47.942;11.804;2023-09-07T15:38:38;94624.03;;;27.65;47.68
21828;BME280;11076;47.942;11.804;2023-09-07T15:43:40;94632.13;;;27.70;48.02
21828;BME280;11076;47.942;11.804;2023-09-07T15:48:43;94630.97;;;27.13;48.70
21828;BME280;11076;47.942;11.804;2023-09-07T15:53:45;94638.94;;;27.24;48.21
21828;BME280;11076;47.942;11.804;2023-09-07T15:58:48;94639.13;;;26.11;50.17
21828;BME280;11076;47.942;11.804;2023-09-07T16:03:51;94639.34;;;26.46;49.47
21828;BME280;11076;47.942;11.804;2023-09-07T16:08:54;94634.78;;;26.32;50.24
21828;BME280;11076;47.942;11.804;2023-09-07T16:13:56;94628.84;;;27.02;48.65
21828;BME280;11076;47.942;11.804;2023-09-07T16:18:59;94626.84;;;26.85;48.98
21828;BME280;11076;47.942;11.804;2023-09-07T16:24:02;94631.06;;;26.91;49.15
21828;BME280;11076;47.942;11.804;2023-09-07T16:29:04;94618.25;;;26.46;50.08
21828;BME280;11076;47.942;11.804;2023-09-07T16:34:07;94623.97;;;26.36;50.37
21828;BME280;11076;47.942;11.804;2023-09-07T16:39:09;94620.31;;;25.95;51.37
21828;BME280;11076;47.942;11.804;2023-09-07T16:44:12;94620.31;;;25.95;51.92
21828;BME280;11076;47.942;11.804;2023-09-07T16:49:14;94628.72;;;25.63;52.82
21828;BME280;11076;47.942;11.804;2023-09-07T16:54:16;94632.59;;;25.06;53.88
21828;BME280;11076;47.942;11.804;2023-09-07T16:59:19;94634.94;;;24.38;55.60
21828;BME280;11076;47.942;11.804;2023-09-07T17:04:40;94642.09;;;23.63;58.02
21828;BME280;11076;47.942;11.804;2023-09-07T17:09:42;94634.94;;;23.68;58.18
21828;BME280;11076;47.942;11.804;2023-09-07T17:14:45;94644.59;;;22.93;60.50
21828;BME280;11076;47.942;11.804;2023-09-07T17:19:49;94627.03;;;23.28;59.48
21828;BME280;11076;47.942;11.804;2023-09-07T17:24:52;94643.69;;;22.78;60.90
21828;BME280;11076;47.942;11.804;2023-09-07T17:29:54;94644.13;;;22.86;60.53
21828;BME280;11076;47.942;11.804;2023-09-07T17:35:04;94641.13;;;22.63;60.77
21828;BME280;11076;47.942;11.804;2023-09-07T17:40:07;94641.22;;;22.53;60.99
21828;BME280;11076;47.942;11.804;2023-09-07T17:45:10;94636.69;;;22.09;62.62
21828;BME280;11076;47.942;11.804;2023-09-07T17:50:12;94640.28;;;21.64;63.74
21828;BME280;11076;47.942;11.804;2023-09-07T17:55:15;94641.09;;;21.15;65.19
21828;BME280;11076;47.942;11.804;2023-09-07T18:00:18;94644.41;;;20.97;66.41
21828;BME280;11076;47.942;11.804;2023-09-07T18:05:20;94643.31;;;20.98;66.62
21828;BME280;11076;47.942;11.804;2023-09-07T18:10:23;94648.66;;;21.23;65.78
21828;BME280;11076;47.942;11.804;2023-09-07T18:15:26;94651.28;;;21.44;65.12
21828;BME280;11076;47.942;11.804;2023-09-07T18:20:28;94656.88;;;21.08;66.58
21828;BME280;11076;47.942;11.804;2023-09-07T18:25:37;94661.31;;;20.83;67.46
21828;BME280;11076;47.942;11.804;2023-09-07T18:30:41;94657.50;;;20.84;67.00
21828;BME280;11076;47.942;11.804;2023-09-07T18:35:43;94664.84;;;20.79;67.40
21828;BME280;11076;47.942;11.804;2023-09-07T18:40:46;94663.47;;;20.86;67.46
21828;BME280;11076;47.942;11.804;2023-09-07T18:45:48;94661.34;;;20.63;68.06
21828;BME280;11076;47.942;11.804;2023-09-07T18:50:59;94660.00;;;20.60;67.82
21828;BME280;11076;47.942;11.804;2023-09-07T18:56:06;94657.75;;;20.88;66.83
21828;BME280;11076;47.942;11.804;2023-09-07T19:01:13;94649.91;;;20.76;67.16
21828;BME280;11076;47.942;11.804;2023-09-07T19:06:16;94652.16;;;20.43;68.66
21828;BME280;11076;47.942;11.804;2023-09-07T19:11:19;94650.81;;;20.25;69.82
21828;BME280;11076;47.942;11.804;2023-09-07T19:16:21;94650.47;;;20.63;67.80
21828;BME280;11076;47.942;11.804;2023-09-07T19:21:27;94646.16;;;20.36;68.25
21828;BME280;11076;47.942;11.804;2023-09-07T19:26:33;94642.41;;;20.12;69.58
21828;BME280;11076;47.942;11.804;2023-09-07T19:31:37;94639.88;;;20.56;67.39
21828;BME280;11076;47.942;11.804;2023-09-07T19:36:40;94639.91;;;20.46;67.80
21828;BME280;11076;47.942;11.804;2023-09-07T19:41:42;94644.16;;;20.93;65.85
21828;BME280;11076;47.942;11.804;2023-09-07T19:46:45;94637.41;;;20.85;65.72
21828;BME280;11076;47.942;11.804;2023-09-07T19:51:47;94646.16;;;20.62;66.77
21828;BME280;11076;47.942;11.804;2023-09-07T19:56:49;94647.25;;;20.40;67.51
21828;BME280;11076;47.942;11.804;2023-09-07T20:01:57;94643.47;;;20.26;67.86
21828;BME280;11076;47.942;11.804;2023-09-07T20:06:59;94649.47;;;18.40;75.18
21828;BME280;11076;47.942;11.804;2023-09-07T20:12:02;94645.47;;;19.06;74.19
21828;BME280;11076;47.942;11.804;2023-09-07T20:17:04;94640.91;;;18.59;75.04
21828;BME280;11076;47.942;11.804;2023-09-07T20:22:07;94641.41;;;18.56;75.25
21828;BME280;11076;47.942;11.804;2023-09-07T20:27:09;94650.59;;;18.49;75.07
21828;BME280;11076;47.942;11.804;2023-09-07T20:32:12;94653.00;;;18.46;76.10
21828;BME280;11076;47.942;11.804;2023-09-07T20:37:14;94652.72;;;18.05;77.37
21828;BME280;11076;47.942;11.804;2023-09-07T20:42:17;94652.19;;;18.08;77.16
21828;BME280;11076;47.942;11.804;2023-09-07T20:47:20;94641.94;;;18.10;77.06
21828;BME280;11076;47.942;11.804;2023-09-07T20:52:23;94643.50;;;18.43;75.03
21828;BME280;11076;47.942;11.804;2023-09-07T20:57:25;94645.75;;;17.82;78.24
21828;BME280;11076;47.942;11.804;2023-09-07T21:02:28;94642.56;;;17.58;79.39
21828;BME280;11076;47.942;11.804;2023-09-07T21:07:30;94636.78;;;18.51;75.41
21828;BME280;11076;47.942;11.804;2023-09-07T21:12:33;94630.47;;;18.83;73.66
21828;BME280;11076;47.942;11.804;2023-09-07T21:17:37;94640.75;;;17.96;77.42
21828;BME280;11076;47.942;11.804;2023-09-07T21:22:40;94636.25;;;17.47;79.23
21828;BME280;11076;47.942;11.804;2023-09-07T21:27:42;94641.59;;;17.42;79.73
21828;BME280;11076;47.942;11.804;2023-09-07T21:32:46;94637.72;;;17.33;79.75
21828;BME280;11076;47.942;11.804;2023-09-07T21:37:48;94648.41;;;17.22;80.08
21828;BME280;11076;47.942;11.804;2023-09-07T21:42:51;94639.72;;;17.15;80.46
21828;BME280;11076;47.942;11.804;2023-09-07T21:47:54;94640.34;;;16.78;82.54
21828;BME280;11076;47.942;11.804;2023-09-07T21:52:56;94656.31;;;17.56;78.83
21828;BME280;11076;47.942;11.804;2023-09-07T21:57:59;94655.94;;;17.15;80.38
21828;BME280;11076;47.942;11.804;2023-09-07T22:03:01;94657.25;;;16.90;81.77
21828;BME280;11076;47.942;11.804;2023-09-07T22:08:04;94655.56;;;16.84;81.84
21828;BME280;11076;47.942;11.804;2023-09-07T22:13:06;94662.94;;;16.72;82.06
21828;BME280;11076;47.942;11.804;2023-09-07T22:18:09;94651.34;;;17.16;80.42
21828;BME280;11076;47.942;11.804;2023-09-07T22:23:11;94645.28;;;17.08;80.41
21828;BME280;11076;47.942;11.804;2023-09-07T22:28:14;94644.31;;;17.42;78.58
21828;BME280;11076;47.942;11.804;2023-09-07T22:33:16;94640.31;;;16.95;80.73
21828;BME280;11076;47.942;11.804;2023-09-07T22:38:20;94646.97;;;16.70;81.65
21828;BME280;11076;47.942;11.804;2023-09-07T22:43:24;94648.88;;;16.70;81.64
21828;BME280;11076;47.942;11.804;2023-09-07T22:48:26;94650.56;;;16.37;83.43
21828;BME280;11076;47.942;11.804;2023-09-07T22:53:28;94645.03;;;16.27;83.43
21828;BME280;11076;47.942;11.804;2023-09-07T22:58:31;94640.00;;;16.92;80.24
21828;BME280;11076;47.942;11.804;2023-09-07T23:03:33;94641.81;;;16.08;84.34
21828;BME280;11076;47.942;11.804;2023-09-07T23:08:36;94643.84;;;16.18;84.18
21828;BME280;11076;47.942;11.804;2023-09-07T23:13:39;94640.31;;;16.34;83.24
21828;BME280;11076;47.942;11.804;2023-09-07T23:18:42;94630.28;;;16.52;81.43
21828;BME280;11076;47.942;11.804;2023-09-07T23:23:44;94638.03;;;16.09;83.25
21828;BME280;11076;47.942;11.804;2023-09-07T23:28:46;94643.91;;;16.23;82.57
21828;BME280;11076;47.942;11.804;2023-09-07T23:33:50;94643.34;;;16.60;81.07
21828;BME280;11076;47.942;11.804;2023-09-07T23:38:53;94636.69;;;17.39;76.86
21828;BME280;11076;47.942;11.804;2023-09-07T23:43:55;94635.25;;;17.04;77.36
21828;BME280;11076;47.942;11.804;2023-09-07T23:48:57;94625.63;;;16.69;79.79
21828;BME280;11076;47.942;11.804;2023-09-07T23:54:00;94627.41;;;16.80;79.07
21828;BME280;11076;47.942;11.804;2023-09-07T23:59:02;94632.34;;;16.83;78.65
